Airfield :
LOGIN :

Register | Disclaimer

   EN    FR    IT 

 










Legend :    VFR   Marginal VFR   IFR   Intensive IFR   Very Intensive IFR
Visi :
Ceiling :
>= 8 km
>= 3000ft
5 to 8 km
1000 to 3000 ft
1500m to 5 km
500 to 1000 ft
800 to 1500m
200 to 500 ft
< 800m
< 200 ft
Symbols :   Thunderstorms  Fog  Heavy snow  Heavy precipitations  Wind > 20 kt
SIGMETs :     Misc.  Thunderstorms  Icing  Turbulence  Mountain Waves  Volcanic Ashes






- Airport Elevation : 458 ft


LFSI - St-Dizier

CURRENT METAR :
  • 200000Z AUTO VRB03KT 9999 OVC013 12/12 Q1007

EXPIRED METARs :
  • 192330Z AUTO VRB02KT 9999 -RA BKN004/// OVC009/// ///TCU 12/12 Q1007
  • 192300Z AUTO 34004KT 9999 OVC010/// ///TCU 12/12 Q1007
  • 192230Z AUTO 31004KT 9000 -RA BKN013/// BKN035/// OVC062/// ///CB 12/12 Q1007
  • 192200Z AUTO 00000KT 9999 -RA FEW016/// BKN037/// BKN047/// ///TCU 12/12 Q1007
  • 192130Z AUTO VRB02KT 9999 DZ BKN031/// OVC045/// ///CB 13/11 Q1007

TAF TAF LFSI
Valid from the 19 at 21:00 until the 20 at 21:00 UTC


192000Z 1921/2021 12005KT 9999 RA OVC020
TEMPO 1921/2010 RADZ OVC006
TEMPO 1921/2021 SHRA BKN014TCU



MET'MAP, your aeronautical weather chart ! - Copyright ORBIFLY December 2007 - Disclaimer

ORBIFLY MET'MAP TEAM :

Programming & Development : Alexandra Zaïnal
Concept & Development : Baudouin d'Aumeries
Co-Development & Prog : Marc-Olivier Méhu
Technical & hardware support : Manuel Goepfert

Contact : metmap@orbifly.com




SOURCES & CREDITS :

   NOAA